createdAt,value
2023-03-25T00:00:17.420Z,11.16
2023-03-25T00:02:50.281Z,11.33
2023-03-25T00:05:19.433Z,11.04
2023-03-25T00:07:49.710Z,11.07
2023-03-25T00:10:16.589Z,10.87
2023-03-25T00:12:43.316Z,10.89
2023-03-25T00:15:12.479Z,10.95
2023-03-25T00:17:39.592Z,10.79
2023-03-25T00:20:11.696Z,10.89
2023-03-25T00:22:44.431Z,11.03
2023-03-25T00:25:19.002Z,10.95
2023-03-25T00:27:47.902Z,10.93
2023-03-25T00:30:16.643Z,10.90
2023-03-25T00:32:46.143Z,10.96
2023-03-25T00:35:13.827Z,10.78
2023-03-25T00:37:41.364Z,10.77
2023-03-25T00:40:08.870Z,10.73
2023-03-25T00:42:35.608Z,10.58
2023-03-25T00:45:02.412Z,10.76
2023-03-25T00:47:29.882Z,10.91
2023-03-25T00:49:56.604Z,10.81
2023-03-25T00:52:23.283Z,10.85
2023-03-25T00:54:50.802Z,10.87
2023-03-25T00:57:17.579Z,10.79
2023-03-25T00:59:44.407Z,10.90
2023-03-25T01:02:11.511Z,11.19
2023-03-25T01:04:41.471Z,11.05
2023-03-25T01:07:09.154Z,10.88
2023-03-25T01:09:38.693Z,11.06
2023-03-25T01:12:05.803Z,10.68
2023-03-25T01:14:32.441Z,10.73
2023-03-25T01:17:00.291Z,10.95
2023-03-25T01:19:30.197Z,11.11
2023-03-25T01:21:56.984Z,11.15
2023-03-25T01:24:23.822Z,11.16
2023-03-25T01:26:50.620Z,11.06
2023-03-25T01:29:20.220Z,10.94
2023-03-25T01:31:47.718Z,10.58
2023-03-25T01:34:15.404Z,10.56
2023-03-25T01:36:46.353Z,10.33
2023-03-25T01:39:16.606Z,10.35
2023-03-25T01:41:50.132Z,10.45
2023-03-25T01:44:21.814Z,10.19
2023-03-25T01:46:53.336Z,10.00
2023-03-25T01:49:39.207Z,10.02
2023-03-25T01:52:21.269Z,10.03
2023-03-25T01:54:52.191Z,9.61
2023-03-25T01:57:21.691Z,9.60
2023-03-25T01:59:50.576Z,9.50
2023-03-25T02:02:18.994Z,9.32
2023-03-25T02:04:59.147Z,9.26
2023-03-25T02:07:30.828Z,9.19
2023-03-25T02:10:02.240Z,9.12
2023-03-25T02:12:29.679Z,9.24
2023-03-25T02:15:00.717Z,9.07
2023-03-25T02:17:56.275Z,9.22
2023-03-25T02:20:45.404Z,8.94
2023-03-25T02:23:41.859Z,8.84
2023-03-25T02:26:41.798Z,8.86
2023-03-25T02:29:23.995Z,8.88
2023-03-25T02:32:20.198Z,8.76
2023-03-25T02:35:26.882Z,8.87
2023-03-25T02:38:17.836Z,8.81
2023-03-25T02:41:04.625Z,8.90
2023-03-25T02:43:55.579Z,9.09
2023-03-25T02:46:24.607Z,9.21
2023-03-25T02:49:10.605Z,9.09
2023-03-25T02:51:44.420Z,9.16
2023-03-25T02:54:15.451Z,9.14
2023-03-25T02:56:44.608Z,9.11
2023-03-25T02:59:16.714Z,9.18
2023-03-25T03:01:44.450Z,9.19
2023-03-25T03:04:11.253Z,9.06
2023-03-25T03:06:41.776Z,9.07
2023-03-25T03:09:28.501Z,9.18
2023-03-25T03:12:16.781Z,9.07
2023-03-25T03:15:04.033Z,9.07
2023-03-25T03:17:38.063Z,9.10
2023-03-25T03:20:18.273Z,9.16
2023-03-25T03:22:54.154Z,9.20
2023-03-25T03:25:33.623Z,9.12
2023-03-25T03:28:30.720Z,9.09
2023-03-25T03:31:06.665Z,9.15
2023-03-25T03:33:40.969Z,9.24
2023-03-25T03:36:13.668Z,9.08
2023-03-25T03:38:46.620Z,9.01
2023-03-25T03:41:20.361Z,8.99
2023-03-25T03:44:03.959Z,8.99
2023-03-25T03:46:36.586Z,8.88
2023-03-25T03:49:08.333Z,8.96
2023-03-25T03:51:43.425Z,8.91
2023-03-25T03:54:24.898Z,8.93
2023-03-25T03:57:02.939Z,8.89
2023-03-25T03:59:53.566Z,8.96
2023-03-25T04:02:55.934Z,8.88
2023-03-25T04:05:32.379Z,8.93
2023-03-25T04:08:11.905Z,8.96
2023-03-25T04:10:59.053Z,8.90
2023-03-25T04:13:32.934Z,8.87
2023-03-25T04:16:00.411Z,8.87
2023-03-25T04:18:28.471Z,8.90
2023-03-25T04:20:56.218Z,8.90
2023-03-25T04:23:22.998Z,8.91
2023-03-25T04:25:53.184Z,8.84
2023-03-25T04:28:20.381Z,8.98
2023-03-25T04:30:48.570Z,8.93
2023-03-25T04:33:15.255Z,8.93
2023-03-25T04:35:41.958Z,8.94
2023-03-25T04:38:08.766Z,8.97
2023-03-25T04:40:35.410Z,8.90
2023-03-25T04:43:02.045Z,8.93
2023-03-25T04:45:28.810Z,8.93
2023-03-25T04:47:55.690Z,8.98
2023-03-25T04:50:29.548Z,8.97
2023-03-25T04:52:58.085Z,8.95
2023-03-25T04:55:25.729Z,8.87
2023-03-25T04:57:54.131Z,8.96
2023-03-25T05:00:23.932Z,8.87
2023-03-25T05:02:54.166Z,8.81
2023-03-25T05:05:23.874Z,8.85
2023-03-25T05:07:53.160Z,8.86
2023-03-25T05:10:23.043Z,8.74
2023-03-25T05:12:50.321Z,8.75
2023-03-25T05:15:17.682Z,8.66
2023-03-25T05:17:45.250Z,8.67
2023-03-25T05:20:13.527Z,8.63
2023-03-25T05:22:41.821Z,8.68
2023-03-25T05:25:09.897Z,8.69
2023-03-25T05:27:37.922Z,8.81
2023-03-25T05:30:06.483Z,8.77
2023-03-25T05:32:33.403Z,8.77
2023-03-25T05:35:01.885Z,8.74
2023-03-25T05:37:30.145Z,8.78
2023-03-25T05:39:56.772Z,8.88
2023-03-25T05:42:23.819Z,8.97
2023-03-25T05:44:53.929Z,9.02
2023-03-25T05:47:23.540Z,8.92
2023-03-25T05:49:52.288Z,8.93
2023-03-25T05:52:20.111Z,9.01
2023-03-25T05:54:50.564Z,9.02
2023-03-25T05:57:17.401Z,9.08
2023-03-25T05:59:44.019Z,9.09
2023-03-25T06:02:16.140Z,9.12
2023-03-25T06:04:43.801Z,9.08
2023-03-25T06:07:14.671Z,9.11
2023-03-25T06:09:46.187Z,9.06
2023-03-25T06:12:17.730Z,9.10
2023-03-25T06:14:45.780Z,9.12
2023-03-25T06:17:14.004Z,9.18
2023-03-25T06:19:40.618Z,9.19
2023-03-25T06:22:09.300Z,9.25
2023-03-25T06:24:37.476Z,9.30
2023-03-25T06:27:09.157Z,9.20
2023-03-25T06:29:41.695Z,9.25
2023-03-25T06:32:11.607Z,9.32
2023-03-25T06:34:39.299Z,9.14
2023-03-25T06:37:06.314Z,9.27
2023-03-25T06:39:33.780Z,9.29
2023-03-25T06:42:05.908Z,9.42
2023-03-25T06:44:46.730Z,9.26
2023-03-25T06:47:33.318Z,9.34
2023-03-25T06:49:59.956Z,9.38
2023-03-25T06:52:26.690Z,9.37
2023-03-25T06:54:53.308Z,9.51
2023-03-25T06:57:19.919Z,9.49
2023-03-25T06:59:47.358Z,9.51
2023-03-25T07:02:14.620Z,9.66
2023-03-25T07:04:41.605Z,9.66
2023-03-25T07:07:09.166Z,9.66
2023-03-25T07:09:35.921Z,9.72
2023-03-25T07:12:03.052Z,10.01
2023-03-25T07:14:29.732Z,10.11
2023-03-25T07:16:56.586Z,9.99
2023-03-25T07:19:23.325Z,9.95
2023-03-25T07:21:49.965Z,9.90
2023-03-25T07:24:16.566Z,9.91
2023-03-25T07:26:43.186Z,10.07
2023-03-25T07:29:12.160Z,10.24
2023-03-25T07:31:40.106Z,9.94
2023-03-25T07:34:08.472Z,10.09
2023-03-25T07:36:35.360Z,10.25
2023-03-25T07:39:02.041Z,10.41
2023-03-25T07:41:28.695Z,10.81
2023-03-25T07:44:10.770Z,10.43
2023-03-25T07:46:38.664Z,10.93
2023-03-25T07:49:05.323Z,10.64
2023-03-25T07:51:33.261Z,10.74
2023-03-25T07:54:05.298Z,11.03
2023-03-25T07:56:33.422Z,10.98
2023-03-25T07:59:00.498Z,11.08
2023-03-25T08:01:27.421Z,10.94
2023-03-25T08:03:54.228Z,12.16
2023-03-25T08:06:21.108Z,11.50
2023-03-25T08:08:47.721Z,11.24
2023-03-25T08:11:14.452Z,11.02
2023-03-25T08:13:41.305Z,10.74
2023-03-25T08:16:12.861Z,10.71
2023-03-25T08:18:39.626Z,10.62
2023-03-25T08:21:06.512Z,10.58
2023-03-25T08:23:36.830Z,10.58
2023-03-25T08:26:05.462Z,11.00
2023-03-25T08:28:32.666Z,10.87
2023-03-25T08:31:02.345Z,10.69
2023-03-25T08:33:34.497Z,10.74
2023-03-25T08:36:02.059Z,10.79
2023-03-25T08:38:34.356Z,11.22
2023-03-25T08:41:02.408Z,11.34
2023-03-25T08:43:29.044Z,11.10
2023-03-25T08:45:55.656Z,11.35
2023-03-25T08:48:23.057Z,11.51
2023-03-25T08:50:49.735Z,11.47
2023-03-25T08:53:16.407Z,11.35
2023-03-25T08:55:43.040Z,11.04
2023-03-25T08:58:10.509Z,11.11
2023-03-25T09:00:37.908Z,11.25
2023-03-25T09:03:05.316Z,11.39
2023-03-25T09:05:32.124Z,11.50
2023-03-25T09:07:58.890Z,11.57
2023-03-25T09:10:25.587Z,11.66
2023-03-25T09:12:52.731Z,11.47
2023-03-25T09:15:19.592Z,11.36
2023-03-25T09:17:46.633Z,11.18
2023-03-25T09:20:13.944Z,11.10
2023-03-25T09:22:41.581Z,11.13
2023-03-25T09:25:08.827Z,10.93
2023-03-25T09:27:35.554Z,11.17
2023-03-25T09:30:04.057Z,11.04
2023-03-25T09:32:31.006Z,11.07
2023-03-25T09:34:57.831Z,11.23
2023-03-25T09:37:24.486Z,11.53
2023-03-25T09:39:51.116Z,12.04
2023-03-25T09:42:40.617Z,11.34
2023-03-25T09:45:22.125Z,11.33
2023-03-25T09:47:57.724Z,11.45
2023-03-25T09:50:26.393Z,11.20
2023-03-25T09:52:59.523Z,11.35
2023-03-25T09:55:32.217Z,11.22
2023-03-25T09:58:19.077Z,11.25
2023-03-25T10:00:50.610Z,11.19
2023-03-25T10:03:28.514Z,11.15
2023-03-25T10:06:17.783Z,11.29
2023-03-25T10:08:58.917Z,11.50
2023-03-25T10:11:43.426Z,11.19
2023-03-25T10:14:15.175Z,11.22
2023-03-25T10:17:03.292Z,11.35
2023-03-25T10:19:58.377Z,11.48
2023-03-25T10:22:38.847Z,11.36
2023-03-25T10:25:15.635Z,11.60
2023-03-25T10:27:49.715Z,11.69
2023-03-25T10:30:22.909Z,11.78
2023-03-25T10:33:01.543Z,11.70
2023-03-25T10:35:30.474Z,11.73
2023-03-25T10:38:13.874Z,11.78
2023-03-25T10:40:53.573Z,11.79
2023-03-25T10:43:23.058Z,11.68
2023-03-25T10:45:53.195Z,11.74
2023-03-25T10:48:27.681Z,11.62
2023-03-25T10:51:04.599Z,11.78
2023-03-25T10:53:31.383Z,12.47
2023-03-25T10:56:08.979Z,12.28
2023-03-25T10:58:38.444Z,11.94
2023-03-25T11:01:14.919Z,12.07
2023-03-25T11:03:43.634Z,11.81
2023-03-25T11:06:29.862Z,11.78
2023-03-25T11:09:18.425Z,11.38
2023-03-25T11:11:46.672Z,11.13
2023-03-25T11:14:13.834Z,10.75
2023-03-25T11:16:48.169Z,10.79
2023-03-25T11:19:21.135Z,11.25
2023-03-25T11:21:52.996Z,11.15
2023-03-25T11:24:20.989Z,11.14
2023-03-25T11:26:51.672Z,11.15
2023-03-25T11:29:24.430Z,11.48
2023-03-25T11:32:08.112Z,11.46
2023-03-25T11:34:41.938Z,11.49
2023-03-25T11:37:22.144Z,11.64
2023-03-25T11:39:56.740Z,11.45
2023-03-25T11:42:32.983Z,11.39
2023-03-25T11:45:02.265Z,11.53
2023-03-25T11:47:37.567Z,11.76
2023-03-25T11:50:06.104Z,11.82
2023-03-25T11:52:45.457Z,11.64
2023-03-25T11:55:19.983Z,12.27
2023-03-25T11:57:49.474Z,12.02
2023-03-25T12:00:46.113Z,12.09
2023-03-25T12:03:13.534Z,12.18
2023-03-25T12:05:41.942Z,12.21
2023-03-25T12:08:16.999Z,12.45
2023-03-25T12:10:49.879Z,12.36
2023-03-25T12:13:35.043Z,12.90
2023-03-25T12:16:33.891Z,12.57
2023-03-25T12:19:13.352Z,13.04
2023-03-25T12:21:48.532Z,13.34
2023-03-25T12:24:36.644Z,13.30
2023-03-25T12:27:18.282Z,13.29
2023-03-25T12:29:56.735Z,13.18
2023-03-25T12:32:45.001Z,13.25
2023-03-25T12:35:23.856Z,13.38
2023-03-25T12:38:14.630Z,13.26
2023-03-25T12:41:07.748Z,13.43
2023-03-25T12:43:40.510Z,13.60
2023-03-25T12:46:33.103Z,13.74
2023-03-25T12:49:16.451Z,13.93
2023-03-25T12:51:51.013Z,13.64
2023-03-25T12:54:47.890Z,13.71
2023-03-25T12:57:53.562Z,13.46
2023-03-25T13:01:04.924Z,13.05
2023-03-25T13:03:50.420Z,13.57
2023-03-25T13:06:30.733Z,13.57
2023-03-25T13:09:12.820Z,13.39
2023-03-25T13:11:50.954Z,13.19
2023-03-25T13:14:23.939Z,13.30
2023-03-25T13:16:54.130Z,13.29
2023-03-25T13:19:25.489Z,13.36
2023-03-25T13:21:58.469Z,13.10
2023-03-25T13:24:35.993Z,13.44
2023-03-25T13:27:05.236Z,13.32
2023-03-25T13:29:38.184Z,13.58
2023-03-25T13:32:12.855Z,13.44
2023-03-25T13:34:53.372Z,13.15
2023-03-25T13:37:34.527Z,13.21
2023-03-25T13:40:18.140Z,13.12
2023-03-25T13:43:20.249Z,13.32
2023-03-25T13:46:10.416Z,13.30
2023-03-25T13:49:02.746Z,13.43
2023-03-25T13:51:29.418Z,13.75
2023-03-25T13:54:02.878Z,13.87
2023-03-25T13:56:44.995Z,13.90
2023-03-25T13:59:31.104Z,14.06
2023-03-25T14:02:10.230Z,13.73
2023-03-25T14:04:48.385Z,14.13
2023-03-25T14:07:34.193Z,14.35
2023-03-25T14:10:10.512Z,14.09
2023-03-25T14:12:52.977Z,14.24
2023-03-25T14:15:23.649Z,14.27
2023-03-25T14:17:52.875Z,14.10
2023-03-25T14:20:34.669Z,14.43
2023-03-25T14:23:07.093Z,14.42
2023-03-25T14:25:40.376Z,14.62
2023-03-25T14:28:12.274Z,14.52
2023-03-25T14:30:40.034Z,14.63
2023-03-25T14:33:10.400Z,14.48
2023-03-25T14:35:37.179Z,14.69
2023-03-25T14:38:09.470Z,14.85
2023-03-25T14:40:50.687Z,14.73
2023-03-25T14:43:46.240Z,14.80
2023-03-25T14:46:13.258Z,14.74
2023-03-25T14:49:04.267Z,14.83
2023-03-25T14:51:30.934Z,15.03
2023-03-25T14:54:09.466Z,15.12
2023-03-25T14:56:41.674Z,15.37
2023-03-25T14:59:15.546Z,15.49
2023-03-25T15:01:45.482Z,15.28
2023-03-25T15:04:29.174Z,15.68
2023-03-25T15:06:56.145Z,15.39
2023-03-25T15:09:22.907Z,15.15
2023-03-25T15:12:14.013Z,14.82
2023-03-25T15:14:43.088Z,15.04
2023-03-25T15:17:33.386Z,14.91
2023-03-25T15:20:05.393Z,14.92
2023-03-25T15:22:32.113Z,14.68
2023-03-25T15:25:00.495Z,14.79
2023-03-25T15:27:56.892Z,14.71
2023-03-25T15:30:55.261Z,14.71
2023-03-25T15:33:45.109Z,14.51
2023-03-25T15:36:50.788Z,14.28
2023-03-25T15:39:38.236Z,14.21
2023-03-25T15:42:35.665Z,14.33
2023-03-25T15:45:33.091Z,14.61
2023-03-25T15:48:24.380Z,14.42
2023-03-25T15:51:24.026Z,14.43
2023-03-25T15:54:03.215Z,14.37
2023-03-25T15:56:34.120Z,14.07
2023-03-25T15:59:30.118Z,14.11
2023-03-25T16:02:02.633Z,13.99
2023-03-25T16:04:42.354Z,14.07
2023-03-25T16:07:13.111Z,14.07
2023-03-25T16:09:49.075Z,14.16
2023-03-25T16:12:24.486Z,14.40
2023-03-25T16:14:52.246Z,14.48
2023-03-25T16:17:21.971Z,14.31
2023-03-25T16:19:56.367Z,14.14
2023-03-25T16:22:32.763Z,14.15
2023-03-25T16:25:06.658Z,13.99
2023-03-25T16:27:45.298Z,13.79
2023-03-25T16:30:36.440Z,13.75
2023-03-25T16:33:12.359Z,14.05
2023-03-25T16:35:43.769Z,14.32
2023-03-25T16:38:17.332Z,14.60
2023-03-25T16:40:46.891Z,14.35
2023-03-25T16:43:23.589Z,14.60
2023-03-25T16:45:52.682Z,14.52
2023-03-25T16:48:26.960Z,14.64
2023-03-25T16:50:55.639Z,14.42
2023-03-25T16:53:23.995Z,14.52
2023-03-25T16:56:01.229Z,14.58
2023-03-25T16:58:28.157Z,14.65
2023-03-25T17:00:56.011Z,14.63
2023-03-25T17:03:49.293Z,14.33
2023-03-25T17:06:29.309Z,14.46
2023-03-25T17:08:58.852Z,14.58
2023-03-25T17:11:31.359Z,14.35
2023-03-25T17:14:02.478Z,14.24
2023-03-25T17:16:32.680Z,14.44
2023-03-25T17:19:01.012Z,14.38
2023-03-25T17:21:33.514Z,14.22
2023-03-25T17:24:03.784Z,14.24
2023-03-25T17:26:53.230Z,13.96
2023-03-25T17:29:22.094Z,14.02
2023-03-25T17:31:59.150Z,14.04
2023-03-25T17:34:27.551Z,13.98
2023-03-25T17:37:00.465Z,14.07
2023-03-25T17:39:32.869Z,13.77
2023-03-25T17:42:01.548Z,13.63
2023-03-25T17:44:37.500Z,13.69
2023-03-25T17:47:06.663Z,13.44
2023-03-25T17:49:33.554Z,13.63
2023-03-25T17:52:00.601Z,13.57
2023-03-25T17:54:27.390Z,13.21
2023-03-25T17:56:54.282Z,12.74
2023-03-25T17:59:23.599Z,12.33
2023-03-25T18:01:50.855Z,12.09
2023-03-25T18:04:20.655Z,11.85
2023-03-25T18:06:47.589Z,11.56
2023-03-25T18:09:20.565Z,11.14
2023-03-25T18:11:50.355Z,11.12
2023-03-25T18:14:17.055Z,11.00
2023-03-25T18:16:43.764Z,10.78
2023-03-25T18:19:18.950Z,11.02
2023-03-25T18:21:46.258Z,10.89
2023-03-25T18:24:14.169Z,10.85
2023-03-25T18:26:43.319Z,10.82
2023-03-25T18:29:16.936Z,10.90
2023-03-25T18:31:44.385Z,10.82
2023-03-25T18:34:13.029Z,11.02
2023-03-25T18:36:41.972Z,10.81
2023-03-25T18:39:15.777Z,10.91
2023-03-25T18:41:43.143Z,11.24
2023-03-25T18:44:12.999Z,11.24
2023-03-25T18:46:41.081Z,11.10
2023-03-25T18:49:17.008Z,11.23
2023-03-25T18:51:43.718Z,11.03
2023-03-25T18:54:11.219Z,11.64
2023-03-25T18:56:41.432Z,11.52
2023-03-25T18:59:15.261Z,11.13
2023-03-25T19:01:42.616Z,11.40
2023-03-25T19:04:09.825Z,11.07
2023-03-25T19:06:39.118Z,11.40
2023-03-25T19:09:08.887Z,11.09
2023-03-25T19:11:36.291Z,11.30
2023-03-25T19:14:03.067Z,11.18
2023-03-25T19:16:30.316Z,11.32
2023-03-25T19:18:57.037Z,11.34
2023-03-25T19:21:23.640Z,11.41
2023-03-25T19:23:52.024Z,11.36
2023-03-25T19:26:19.097Z,11.35
2023-03-25T19:28:46.500Z,10.66
2023-03-25T19:31:18.928Z,10.83
2023-03-25T19:33:45.823Z,10.54
2023-03-25T19:36:18.782Z,10.67
2023-03-25T19:38:45.657Z,10.68
2023-03-25T19:41:16.004Z,10.54
2023-03-25T19:43:43.259Z,10.59
2023-03-25T19:46:11.180Z,10.51
2023-03-25T19:48:38.324Z,10.45
2023-03-25T19:51:05.324Z,10.50
2023-03-25T19:53:32.374Z,10.50
2023-03-25T19:56:04.559Z,10.32
2023-03-25T19:58:31.564Z,10.20
2023-03-25T20:00:59.304Z,10.40
2023-03-25T20:03:26.881Z,10.23
2023-03-25T20:05:58.649Z,10.36
2023-03-25T20:08:25.939Z,10.24
2023-03-25T20:10:53.352Z,10.35
2023-03-25T20:13:20.856Z,10.37
2023-03-25T20:15:51.733Z,10.37
2023-03-25T20:18:18.810Z,10.36
2023-03-25T20:20:46.318Z,10.36
2023-03-25T20:23:13.716Z,10.33
2023-03-25T20:25:41.068Z,10.30
2023-03-25T20:28:08.030Z,10.25
2023-03-25T20:30:35.843Z,10.23
2023-03-25T20:33:03.456Z,10.32
2023-03-25T20:35:31.056Z,10.28
2023-03-25T20:37:58.323Z,10.23
2023-03-25T20:40:33.778Z,10.23
2023-03-25T20:43:05.992Z,10.28
2023-03-25T20:45:33.027Z,10.32
2023-03-25T20:48:00.288Z,10.33
2023-03-25T20:50:27.145Z,10.45
2023-03-25T20:52:53.898Z,10.31
2023-03-25T20:55:20.998Z,10.31
2023-03-25T20:57:47.745Z,10.27
2023-03-25T21:00:14.581Z,10.30
2023-03-25T21:02:42.582Z,10.36
2023-03-25T21:05:09.790Z,10.51
2023-03-25T21:07:37.623Z,10.65
2023-03-25T21:10:05.155Z,10.46
2023-03-25T21:12:42.553Z,10.51
2023-03-25T21:15:13.130Z,10.51
2023-03-25T21:17:40.565Z,10.63
2023-03-25T21:20:09.427Z,10.66
2023-03-25T21:22:43.148Z,10.78
2023-03-25T21:25:11.045Z,10.72
2023-03-25T21:27:40.173Z,10.76
2023-03-25T21:30:09.520Z,10.76
2023-03-25T21:32:38.816Z,10.72
2023-03-25T21:35:06.925Z,10.81
2023-03-25T21:37:37.742Z,10.98
2023-03-25T21:40:07.927Z,10.92
2023-03-25T21:42:34.787Z,10.73
2023-03-25T21:45:02.557Z,10.90
2023-03-25T21:47:29.886Z,10.92
2023-03-25T21:49:56.556Z,10.75
2023-03-25T21:52:26.162Z,10.67
2023-03-25T21:54:54.425Z,10.89
2023-03-25T21:57:21.834Z,11.05
2023-03-25T21:59:49.379Z,11.04
2023-03-25T22:02:16.996Z,11.23
2023-03-25T22:04:43.639Z,11.08
2023-03-25T22:07:10.372Z,10.70
2023-03-25T22:09:37.276Z,10.59
2023-03-25T22:12:04.523Z,10.56
2023-03-25T22:14:31.295Z,10.64
2023-03-25T22:16:58.058Z,10.48
2023-03-25T22:19:24.892Z,10.67
2023-03-25T22:21:51.640Z,10.64
2023-03-25T22:24:18.455Z,10.46
2023-03-25T22:26:45.157Z,10.25
2023-03-25T22:29:13.395Z,10.23
2023-03-25T22:31:40.692Z,10.35
2023-03-25T22:34:14.927Z,10.31
2023-03-25T22:36:46.190Z,10.40
2023-03-25T22:39:12.918Z,10.34
2023-03-25T22:41:39.642Z,10.21
2023-03-25T22:44:06.828Z,10.29
2023-03-25T22:46:33.892Z,10.32
2023-03-25T22:49:01.200Z,10.23
2023-03-25T22:51:28.159Z,10.09
2023-03-25T22:53:55.041Z,10.17
2023-03-25T22:56:23.476Z,10.09
2023-03-25T22:58:53.788Z,10.14
2023-03-25T23:01:23.865Z,10.09
2023-03-25T23:03:51.980Z,10.21
2023-03-25T23:06:19.394Z,10.15
2023-03-25T23:08:46.102Z,10.26
2023-03-25T23:11:17.251Z,10.30
2023-03-25T23:13:47.699Z,10.26
2023-03-25T23:16:17.217Z,10.23
2023-03-25T23:18:44.789Z,10.25
2023-03-25T23:21:14.738Z,9.98
2023-03-25T23:23:52.597Z,10.00
2023-03-25T23:26:26.596Z,9.86
2023-03-25T23:28:56.989Z,9.93
2023-03-25T23:31:28.925Z,9.77
2023-03-25T23:33:57.671Z,9.90
2023-03-25T23:36:26.194Z,9.89
2023-03-25T23:38:53.615Z,9.82
2023-03-25T23:41:25.730Z,9.82
2023-03-25T23:43:54.305Z,9.87
2023-03-25T23:46:23.078Z,9.71
2023-03-25T23:48:54.633Z,9.80
2023-03-25T23:51:24.798Z,9.63
2023-03-25T23:53:52.328Z,9.68
2023-03-25T23:56:21.776Z,9.68
2023-03-25T23:58:49.046Z,9.62
